^^
Saratoga-Weather Station Historical Data
Daily Summary for February 9, 2020 Units:  English    Metric   Both
Daily Weekly Monthly Yearly Custom
  High: Low: Average:
Temperature: 52.3 °F 48.4 °F 50.2 °F
Dew Point: 51.1 °F 47.8 °F 49.6 °F
Humidity: 98% 95% 98%
Wind Speed: 8.1mph 0mph 1.8mph
Wind Gust: 12mph - -
Wind- - SSE
Pressure: 30.3 in 30.1 in -
Precipitation: 0.07 in    
Historical Graphs
 
 
Tabular Data for February 9, 2020
Time Temperature Dew Point Pressure Wind Wind Speed Wind Gust Humidity Rainfall Rate (Hourly) solar
00:02 48.4 °F 47.8 °F 30.3 in Calm   2 mph 98% 0 in 0 W/m2
00:07 48.6 °F 48 °F 30.3 in Calm   4 mph 98% 0 in 0 W/m2
00:12 48.9 °F 48.4 °F 30.3 in NNE 2 mph 3 mph 98% 0 in 0 W/m2
00:17 49.3 °F 48.7 °F 30.2 in WNW 2 mph 5 mph 98% 0 in 0 W/m2
00:22 49.3 °F 48.7 °F 30.2 in SW 2 mph 4 mph 98% 0 in 0 W/m2
00:27 49.5 °F 48.9 °F 30.2 in Calm   5 mph 98% 0 in 0 W/m2
00:32 49.5 °F 48.9 °F 30.2 in NE 0.9 mph 2 mph 98% 0.01 in 0 W/m2
00:37 49.5 °F 48.9 °F 30.2 in East 2 mph 5 mph 98% 0.01 in 0 W/m2
00:42 49.5 °F 48.9 °F 30.2 in NNE 2 mph 3 mph 98% 0.01 in 0 W/m2
00:47 49.5 °F 48.9 °F 30.2 in Calm     98% 0.01 in 0 W/m2
00:52 49.5 °F 48.9 °F 30.2 in NNE 0.9 mph 3 mph 98% 0.01 in 0 W/m2
00:57 49.3 °F 48.7 °F 30.2 in Calm   2 mph 98% 0.01 in 0 W/m2
01:02 49.3 °F 48.7 °F 30.2 in NW 2 mph 2 mph 98% 0.01 in 0 W/m2
01:07 49.5 °F 48.9 °F 30.2 in Calm     98% 0.01 in 0 W/m2
01:12 49.5 °F 48.9 °F 30.2 in Calm   2 mph 98% 0.01 in 0 W/m2
01:17 49.5 °F 48.9 °F 30.2 in SW 0.9 mph 2 mph 98% 0.01 in 0 W/m2
01:22 49.5 °F 48.9 °F 30.2 in Calm   2 mph 98% 0.01 in 0 W/m2
01:27 49.5 °F 48.9 °F 30.2 in WSW 2.9 mph 4 mph 98% 0.01 in 0 W/m2
01:32 49.3 °F 48.7 °F 30.2 in Calm     98% 0 in 0 W/m2
01:37 49.3 °F 48.7 °F 30.2 in Calm   3 mph 98% 0 in 0 W/m2
01:43 49.3 °F 48.7 °F 30.2 in North 0.9 mph 2 mph 98% 0 in 0 W/m2
01:48 49.3 °F 48.7 °F 30.2 in Calm     98% 0 in 0 W/m2
01:53 49.5 °F 48.9 °F 30.2 in Calm   4 mph 98% 0 in 0 W/m2
01:58 49.5 °F 48.9 °F 30.2 in West 2 mph 2 mph 98% 0.01 in 0 W/m2
02:03 49.5 °F 48.9 °F 30.2 in Calm   4 mph 98% 0.01 in 0 W/m2
02:08 49.5 °F 48.9 °F 30.2 in Calm   1 mph 98% 0.01 in 0 W/m2
02:13 49.5 °F 48.9 °F 30.2 in Calm   3 mph 98% 0.01 in 0 W/m2
02:18 49.5 °F 48.9 °F 30.2 in Calm   5 mph 98% 0.01 in 0 W/m2
02:23 49.5 °F 48.9 °F 30.2 in Calm   2 mph 98% 0.01 in 0 W/m2
02:28 49.5 °F 48.9 °F 30.2 in Calm     98% 0.01 in 0 W/m2
02:33 49.5 °F 48.9 °F 30.2 in ENE 2 mph 3 mph 98% 0.01 in 0 W/m2
02:38 49.5 °F 48.9 °F 30.2 in Calm   2 mph 98% 0.01 in 0 W/m2
02:43 49.5 °F 48.9 °F 30.2 in NE 2.9 mph 4 mph 98% 0.01 in 0 W/m2
02:48 49.5 °F 48.9 °F 30.2 in NE 0.9 mph 2 mph 98% 0.01 in 0 W/m2
02:53 49.5 °F 48.9 °F 30.2 in NE 2.9 mph 3 mph 98% 0.01 in 0 W/m2
02:58 49.5 °F 48.9 °F 30.2 in North 2 mph 3 mph 98% 0 in 0 W/m2
03:03 49.5 °F 48.9 °F 30.2 in NNE 0.9 mph 3 mph 98% 0 in 0 W/m2
03:08 49.5 °F 48.9 °F 30.2 in NE 4 mph 4 mph 98% 0 in 0 W/m2
03:13 49.5 °F 48.9 °F 30.2 in Calm   2 mph 98% 0 in 0 W/m2
03:18 49.5 °F 48.9 °F 30.2 in East 2 mph 4 mph 98% 0 in 0 W/m2
03:23 49.6 °F 49.1 °F 30.2 in North 2 mph 2 mph 98% 0 in 0 W/m2
03:28 49.6 °F 49.1 °F 30.2 in Calm   2 mph 98% 0 in 0 W/m2
03:33 49.6 °F 49.1 °F 30.2 in ENE 2.9 mph 5 mph 98% 0.01 in 0 W/m2
03:38 49.6 °F 49.1 °F 30.2 in ESE 2.9 mph 5 mph 98% 0.01 in 0 W/m2
03:43 49.6 °F 49.1 °F 30.2 in ENE 0.9 mph 4 mph 98% 0.01 in 0 W/m2
03:48 49.6 °F 49.1 °F 30.2 in ENE 2 mph 3 mph 98% 0.01 in 0 W/m2
03:53 49.6 °F 49.1 °F 30.2 in NE 4.9 mph 5 mph 98% 0.01 in 0 W/m2
03:58 49.6 °F 49.1 °F 30.2 in ENE 0.9 mph 4 mph 98% 0.01 in 0 W/m2
04:03 49.6 °F 49.1 °F 30.2 in NE 2.9 mph 3 mph 98% 0.01 in 0 W/m2
04:08 49.6 °F 49.1 °F 30.2 in North 2 mph 4 mph 98% 0.01 in 0 W/m2
04:13 49.6 °F 49.1 °F 30.2 in Calm   2 mph 98% 0.02 in 0 W/m2
04:18 49.6 °F 49.1 °F 30.2 in East 4 mph 8 mph 98% 0.02 in 0 W/m2
04:23 49.8 °F 49.3 °F 30.2 in Calm     98% 0.02 in 0 W/m2
04:28 49.8 °F 49.3 °F 30.2 in NNW 0.9 mph 7 mph 98% 0.02 in 0 W/m2
04:33 49.8 °F 49.3 °F 30.2 in NNW 4 mph 4 mph 98% 0.01 in 0 W/m2
04:39 50 °F 49.5 °F 30.2 in Calm     98% 0.01 in 0 W/m2
04:44 50 °F 49.5 °F 30.2 in NNW 2.9 mph 5 mph 98% 0.01 in 0 W/m2
04:49 50 °F 49.5 °F 30.2 in NE 2.9 mph 3 mph 98% 0.01 in 0 W/m2
04:54 50 °F 49.5 °F 30.2 in Calm   4 mph 98% 0.01 in 0 W/m2
04:59 50 °F 49.5 °F 30.2 in WNW 0.9 mph 4 mph 98% 0.01 in 0 W/m2
05:04 50 °F 49.5 °F 30.2 in Calm   3 mph 98% 0.01 in 0 W/m2
05:09 50.2 °F 49.6 °F 30.2 in NNW 0.9 mph 4 mph 98% 0.01 in 0 W/m2
05:14 50.2 °F 49.6 °F 30.2 in ENE 2.9 mph 4 mph 98% 0 in 0 W/m2
05:19 50.2 °F 49.6 °F 30.1 in Calm   5 mph 98% 0 in 0 W/m2
05:24 50.2 °F 49.6 °F 30.1 in NNW 2.9 mph 4 mph 98% 0 in 0 W/m2
05:29 50.2 °F 49.6 °F 30.1 in NW 2.9 mph 5 mph 98% 0 in 0 W/m2
05:34 50.2 °F 49.6 °F 30.1 in WNW 2 mph 3 mph 98% 0 in 0 W/m2
05:39 50.2 °F 49.6 °F 30.1 in NNE 2 mph 4 mph 98% 0 in 0 W/m2
05:44 50.2 °F 49.6 °F 30.1 in ENE 2 mph 5 mph 98% 0 in 0 W/m2
05:49 50.2 °F 49.6 °F 30.1 in Calm   3 mph 98% 0 in 0 W/m2
05:54 50.2 °F 49.6 °F 30.1 in ENE 2 mph 2 mph 98% 0 in 0 W/m2
05:59 50.2 °F 49.6 °F 30.1 in West 2.9 mph 3 mph 98% 0 in 0 W/m2
06:04 50.2 °F 49.6 °F 30.1 in North 0.9 mph 3 mph 98% 0 in 0 W/m2
06:10 50.4 °F 49.8 °F 30.1 in ENE 0.9 mph 4 mph 98% 0 in 0 W/m2
06:15 50.4 °F 49.8 °F 30.1 in Calm   5 mph 98% 0 in 0 W/m2
06:20 50.4 °F 49.8 °F 30.1 in North 4 mph 4 mph 98% 0 in 0 W/m2
06:25 50.4 °F 49.8 °F 30.1 in West 0.9 mph 4 mph 98% 0 in 0 W/m2
06:30 50.4 °F 49.8 °F 30.1 in NW 0.9 mph 2 mph 98% 0 in 0 W/m2
06:35 50.4 °F 49.8 °F 30.1 in Calm   2 mph 98% 0 in 0 W/m2
06:40 50.5 °F 50 °F 30.1 in NW 2.9 mph 3 mph 98% 0.01 in 0 W/m2
06:45 50.5 °F 50 °F 30.1 in SSE 2 mph 4 mph 98% 0.01 in 0 W/m2
06:50 50.5 °F 50 °F 30.1 in NE 6 mph 6 mph 98% 0.01 in 0 W/m2
06:55 50.5 °F 50 °F 30.1 in NE 4.9 mph 9 mph 98% 0.01 in 0 W/m2
07:00 50.5 °F 50 °F 30.1 in NE 0.9 mph 4 mph 98% 0.01 in 0 W/m2
07:05 50.5 °F 50 °F 30.1 in West 8 mph 8 mph 98% 0.01 in 0 W/m2
07:10 50.5 °F 50 °F 30.1 in NNE 4.9 mph 5 mph 98% 0.02 in 0 W/m2
07:15 50.5 °F 50 °F 30.1 in NNE 8 mph 8 mph 98% 0.02 in 0 W/m2
07:20 50.5 °F 50 °F 30.1 in East 4 mph 9 mph 98% 0.02 in 0 W/m2
07:25 50.5 °F 50 °F 30.1 in WSW 0.9 mph 5 mph 98% 0.02 in 0 W/m2
07:30 50.5 °F 50 °F 30.1 in WNW 0.9 mph 11 mph 98% 0.02 in 0 W/m2
07:35 50.5 °F 50 °F 30.1 in East 2 mph 4 mph 98% 0.02 in 0 W/m2
07:40 50.7 °F 50.2 °F 30.1 in East 2 mph 10 mph 98% 0.01 in 0 W/m2
07:45 50.7 °F 50.2 °F 30.1 in WNW 2 mph 4 mph 98% 0.01 in 0 W/m2
07:50 50.7 °F 50.2 °F 30.1 in NNE 2 mph 8 mph 98% 0.01 in 0 W/m2
07:55 50.7 °F 49.8 °F 30.1 in West 2.9 mph 8 mph 97% 0.01 in 0 W/m2
08:00 50.7 °F 49.8 °F 30.1 in NNW 4 mph 4 mph 97% 0.01 in 0 W/m2
08:05 50.5 °F 49.6 °F 30.1 in SSW 0.9 mph 2 mph 97% 0.01 in 0 W/m2
08:10 50.5 °F 49.6 °F 30.1 in Calm   4 mph 97% 0.01 in 0 W/m2
08:15 50.5 °F 49.6 °F 30.1 in NNW 0.9 mph 4 mph 97% 0.01 in 0 W/m2
08:20 50.5 °F 49.6 °F 30.1 in West 0.9 mph 4 mph 97% 0.01 in 0 W/m2
08:25 50.5 °F 49.6 °F 30.1 in North 2 mph 8 mph 97% 0.01 in 0 W/m2
08:30 50.5 °F 49.6 °F 30.1 in NW 4 mph 8 mph 97% 0.01 in 0 W/m2
08:35 50.5 °F 49.6 °F 30.1 in WNW 2 mph 6 mph 97% 0.02 in 0 W/m2
08:40 50.5 °F 49.6 °F 30.1 in West 2.9 mph 3 mph 97% 0.02 in 5 W/m2
08:45 50.7 °F 49.8 °F 30.1 in NW 2.9 mph 12 mph 97% 0.02 in 5 W/m2
08:50 50.7 °F 49.8 °F 30.1 in West 4 mph 6 mph 97% 0.02 in 5 W/m2
08:55 50.7 °F 49.8 °F 30.1 in West 6 mph 12 mph 97% 0.02 in 11 W/m2
09:00 50.7 °F 49.8 °F 30.1 in WSW 2.9 mph 3 mph 97% 0.02 in 12 W/m2
09:05 50.7 °F 49.8 °F 30.1 in NE 2 mph 7 mph 97% 0.02 in 14 W/m2
09:10 50.7 °F 49.8 °F 30.1 in SW 0.9 mph 5 mph 97% 0.01 in 16 W/m2
09:16 50.7 °F 49.8 °F 30.1 in NW 2.9 mph 5 mph 97% 0.01 in 19 W/m2
09:21 50.9 °F 50 °F 30.1 in North 2 mph 4 mph 97% 0.01 in 19 W/m2
09:26 50.9 °F 50 °F 30.1 in West 6 mph 9 mph 97% 0.01 in 18 W/m2
09:31 51.1 °F 50.2 °F 30.1 in WSW 2 mph 8 mph 97% 0 in 19 W/m2
09:36 51.1 °F 50.2 °F 30.1 in WNW 0.9 mph 9 mph 97% 0 in 21 W/m2
09:41 51.1 °F 50.2 °F 30.1 in NW 2 mph 5 mph 97% 0.01 in 28 W/m2
09:46 51.1 °F 50.2 °F 30.1 in North 2.9 mph 8 mph 97% 0.01 in 28 W/m2
09:51 51.1 °F 50.2 °F 30.1 in Calm   1 mph 97% 0.01 in 30 W/m2
09:56 51.1 °F 50.2 °F 30.1 in NNW 4 mph 9 mph 97% 0.01 in 42 W/m2
10:01 51.3 °F 50.4 °F 30.1 in WNW 2.9 mph 4 mph 97% 0.01 in 44 W/m2
10:06 51.3 °F 50.4 °F 30.1 in WSW 2.9 mph 4 mph 97% 0.01 in 33 W/m2
10:11 51.3 °F 50.4 °F 30.1 in NNE 2.9 mph 7 mph 97% 0.01 in 35 W/m2
10:16 51.4 °F 50.4 °F 30.1 in Calm   9 mph 96% 0.01 in 32 W/m2
10:21 51.4 °F 50.4 °F 30.1 in West 2.9 mph 6 mph 96% 0.01 in 32 W/m2
10:26 51.4 °F 50.4 °F 30.1 in Calm   4 mph 96% 0.01 in 35 W/m2
10:31 51.4 °F 50.4 °F 30.1 in Calm   3 mph 96% 0.01 in 44 W/m2
10:36 51.6 °F 50.5 °F 30.1 in Calm   10 mph 96% 0.01 in 40 W/m2
10:41 51.6 °F 50.5 °F 30.1 in South 2.9 mph 9 mph 96% 0 in 37 W/m2
10:46 51.6 °F 50.5 °F 30.1 in Calm   10 mph 96% 0 in 32 W/m2
10:51 51.8 °F 50.7 °F 30.1 in WSW 2.9 mph 4 mph 96% 0 in 37 W/m2
10:56 51.8 °F 50.7 °F 30.1 in NNE 2 mph 2 mph 96% 0 in 63 W/m2
11:01 52 °F 50.9 °F 30.1 in NW 0.9 mph 4 mph 96% 0 in 63 W/m2
11:06 52 °F 50.9 °F 30.1 in NE 0.9 mph 8 mph 96% 0 in 60 W/m2
11:11 52.2 °F 51.1 °F 30.1 in WNW 0.9 mph 10 mph 96% 0 in 53 W/m2
11:16 52.2 °F 51.1 °F 30.1 in Calm   2 mph 96% 0 in 46 W/m2
11:21 52.2 °F 50.7 °F 30.1 in NE 2.9 mph 10 mph 95% 0 in 54 W/m2
11:26 52.3 °F 50.9 °F 30.1 in NNE 8.1 mph 8 mph 95% 0 in 60 W/m2
11:31 52.3 °F 50.9 °F 30.1 in Calm   9 mph 95% 0 in 60 W/m2
Juneau County Weather
Compliments of Weather Underground - 2 mb